首页
METAR-TAF:

METAR-TAF

机场 :

拉巴特-塞拉国际机场

拉巴特, 摩洛哥

纬度: 34-03N, 经度: 006-46W, 海拔: 84米

当前天气观测

该预报发布于12分钟前的14:00 UTC
风速10节,风向西转西南
温度 18°C
湿度 77%
气压 1012 hPa
能見度: 6000
少量云层高于1000英尺
散云层高于1500英尺
多云层高于2600英尺

METAR: GMME 201400Z 25010KT 6000 FEW010 SCT015 BKN026 18/14 Q1012 NOSIG

时间: 14:12 (14:12 UTC)

预报

该预报发布于3小时和12分钟前的11:00 UTC
预报有效从20日的 12点(UTC)到 21日的 18点(UTC)
风速12节,风向西南
能見度: 6000
多云层高于1300英尺
多云层高于1600英尺
短暂存在
从 20日的 12点(UTC)到 20日的 18点(UTC)
风速18节,风向西转西南
能見度: 4000
散云层高于1000英尺
几率 40% :
短暂存在
从 20日的 18点(UTC)到 21日的 00点(UTC)
风速20节,风向西南,有时为30节阵风
能見度: 3000
散云层高于2000英尺, 积雨云.
阵雨

TAF: GMME 201100Z 2012/2118 22012KT 6000 BKN013 BKN016 TEMPO 2012/2018 24018KT 4000 RA SCT010 PROB40 TEMPO 2018/2100 22020G30KT 3000 SHRA SCT020CB

超过4000个机场的气象观测和天气预报(METAR&TAF报告)。

可查询的气象台以黄色和红色小点在地图上表示。

将鼠标移到小点上方,可查看气象台名称。

然后点击查看天气观测和预报。

如需切换地图:点击带黑十字的绿色按钮放大地图;点击带横线的绿色按钮缩小地图;或者点击绿色箭头查看邻近地区的地图。


METAR-TAF: